Melbourne, FL (32901)

3:14 PM EDT on August 03, 2015 (GMT -0400)
Timber Ridge | | Change Station
CLOSE
Current Station
Personal Weather Station
Location: West Melbourne, FL
Elevation: 33 ft
Nearby Weather Stations

Elev 33 ft 28.07 °N, 80.65 °W | Updated 7 minutes ago

Mostly Cloudy
Mostly Cloudy
82.4 °F
Feels Like 88 °F
N
4.0
Wind Variable Wind from West
Gusts 9.0 mph

Today
High -- | Low -- °F
--% Chance of Precip.
Yesterday
High -- | Low -- °F
Precip. -- in
6:45 AM 8:11 PM
Waning Gibbous, 85% visible
Pressure 29.97 in
Visibility 10.0 miles
Clouds Few 5000 ft
Mostly Cloudy 12000 ft
Heat Index 88 °F
Dew Point 72 °F
Humidity 72%
Rainfall 0.00 in
Snow Depth Not available.
UV 7 out of 12
Pollen 3.70 out of 12
Air Quality Not available.
Flu Activity Not available.
METAR KMLB 031853Z 24012KT 10SM FEW050 BKN120 28/23 A2997 RMK AO2 SLP148 T02830228

More Conditions Fewer Conditions

Pressure 29.97 in
Visibility 10.0 miles
Clouds Few 5000 ft
Mostly Cloudy 12000 ft
Heat Index 88 °F
Dew Point 72 °F
Humidity 72%
Rainfall 0.00 in
Snow Depth Not available.
UV 7 out of 12
Pollen 3.70 out of 12
Air Quality Not available.
Flu Activity Not available.
METAR KMLB 031853Z 24012KT 10SM FEW050 BKN120 28/23 A2997 RMK AO2 SLP148 T02830228

More Conditions Fewer Conditions

Nowcast | as of 12:50 PM EDT on August 3, 2015

The ongoing showers and storms across west Florida have kicked out an outflow boundary that has quickly pushed across the peninsula this afternoon. However...due to the lack of significant heating only a few showers have developed on this boundary as it moves into the Treasure Coast. A few showers or storms will be possible across the Treasure Coast where temperatures are a little warmer and more heating as occurred as this boundary moves through over the next two hours. Elsewhere...light to moderate rain will continue across the region through the remainder of the afternoon hours. Due to the continuing cloud cover...conditions due not look favorable for extensive development of showers and storms this afternoon. However...if any breaks in the cloud cover do occur...heavier showers or storms may be possible. Additional details...including graphics are available online at: http://www.Srh.NOAA.Gov/mlb/blog.Php

×

10-Day Weather Forecast

×

Almanac

Astronomy

Aug. 03, 2015 Rise Set
Actual Time
Civil Twilight
Nautical Twilight
Astronomical Twilight
Moon
Length of Visible Light
Length of Day
Tomorrow will be .
, % of the Moon is Illuminated

Today's Extremes

State Highs State Lows

Community

WunderPhotos

Upload Photos

1,843,707 photos uploaded!

WunderBlogs® & News

Nearby

Air Quality

  Air Quality AQ Index Pollutant
Not available.

Snow Depth

Station Depth Elevation

Earthquake Activity

City Distance Mag. Time & Date
Minimum magnitude displayed is 2.5.

Coastal Water Temperatures

Place Temperature

Stations

Nearby Weather Stations

Station Location Temp. Windchill Dew Point Humidity Wind Precip. Elev Updated Type